sensor_id;sensor_type;location;lat;lon;timestamp;pressure;altitude;pressure_sealevel;temperature;humidity
72855;BME280;60991;51.278;22.550;2023-11-19T00:00:01;99731.75;;;3.46;75.07
72855;BME280;60991;51.278;22.550;2023-11-19T00:01:32;99735.28;;;3.39;75.49
72855;BME280;60991;51.278;22.550;2023-11-19T00:03:02;99730.13;;;3.45;75.16
72855;BME280;60991;51.278;22.550;2023-11-19T00:04:32;99722.53;;;3.51;75.77
72855;BME280;60991;51.278;22.550;2023-11-19T00:06:03;99720.34;;;3.54;75.21
72855;BME280;60991;51.278;22.550;2023-11-19T00:07:33;99726.03;;;3.58;75.03
72855;BME280;60991;51.278;22.550;2023-11-19T00:09:03;99723.03;;;3.61;75.00
72855;BME280;60991;51.278;22.550;2023-11-19T00:10:33;99727.75;;;3.65;74.88
72855;BME280;60991;51.278;22.550;2023-11-19T00:12:04;99721.69;;;3.65;75.50
72855;BME280;60991;51.278;22.550;2023-11-19T00:13:35;99717.25;;;3.65;75.30
72855;BME280;60991;51.278;22.550;2023-11-19T00:15:05;99702.38;;;3.72;74.76
72855;BME280;60991;51.278;22.550;2023-11-19T00:16:36;99698.00;;;3.79;74.71
72855;BME280;60991;51.278;22.550;2023-11-19T00:18:06;99694.66;;;3.86;74.62
72855;BME280;60991;51.278;22.550;2023-11-19T00:19:36;99684.59;;;3.89;74.79
72855;BME280;60991;51.278;22.550;2023-11-19T00:21:06;99679.38;;;3.96;74.65
72855;BME280;60991;51.278;22.550;2023-11-19T00:22:37;99678.84;;;4.00;74.18
72855;BME280;60991;51.278;22.550;2023-11-19T00:24:07;99686.97;;;4.05;74.09
72855;BME280;60991;51.278;22.550;2023-11-19T00:25:38;99670.81;;;4.08;74.30
72855;BME280;60991;51.278;22.550;2023-11-19T00:27:08;99681.31;;;4.08;74.10
72855;BME280;60991;51.278;22.550;2023-11-19T00:28:38;99668.00;;;4.10;73.44
72855;BME280;60991;51.278;22.550;2023-11-19T00:30:08;99670.25;;;4.13;73.33
72855;BME280;60991;51.278;22.550;2023-11-19T00:31:39;99660.75;;;4.12;72.88
72855;BME280;60991;51.278;22.550;2023-11-19T00:33:09;99661.38;;;4.14;73.04
72855;BME280;60991;51.278;22.550;2023-11-19T00:34:39;99662.19;;;4.14;73.37
72855;BME280;60991;51.278;22.550;2023-11-19T00:36:09;99658.75;;;4.14;73.12
72855;BME280;60991;51.278;22.550;2023-11-19T00:37:40;99657.56;;;4.16;72.99
72855;BME280;60991;51.278;22.550;2023-11-19T00:39:10;99661.63;;;4.19;72.88
72855;BME280;60991;51.278;22.550;2023-11-19T00:40:40;99651.94;;;4.20;72.87
72855;BME280;60991;51.278;22.550;2023-11-19T00:42:10;99659.19;;;4.17;72.61
72855;BME280;60991;51.278;22.550;2023-11-19T00:43:41;99653.69;;;4.12;73.00
72855;BME280;60991;51.278;22.550;2023-11-19T00:45:11;99649.38;;;4.05;72.94
72855;BME280;60991;51.278;22.550;2023-11-19T00:46:41;99655.00;;;4.02;73.46
72855;BME280;60991;51.278;22.550;2023-11-19T00:48:11;99652.56;;;4.00;73.08
72855;BME280;60991;51.278;22.550;2023-11-19T00:49:42;99645.50;;;4.01;73.28
72855;BME280;60991;51.278;22.550;2023-11-19T00:51:12;99647.75;;;4.04;73.20
72855;BME280;60991;51.278;22.550;2023-11-19T00:52:42;99650.19;;;4.05;73.20
72855;BME280;60991;51.278;22.550;2023-11-19T00:54:12;99650.38;;;4.04;73.54
72855;BME280;60991;51.278;22.550;2023-11-19T00:55:42;99639.06;;;4.03;73.40
72855;BME280;60991;51.278;22.550;2023-11-19T00:57:13;99638.06;;;4.04;73.45
72855;BME280;60991;51.278;22.550;2023-11-19T00:58:43;99632.00;;;4.04;73.25
72855;BME280;60991;51.278;22.550;2023-11-19T01:00:13;99631.19;;;4.03;73.51
72855;BME280;60991;51.278;22.550;2023-11-19T01:01:44;99628.56;;;4.03;73.34
72855;BME280;60991;51.278;22.550;2023-11-19T01:03:14;99634.00;;;4.02;73.68
72855;BME280;60991;51.278;22.550;2023-11-19T01:04:44;99633.00;;;4.03;73.34
72855;BME280;60991;51.278;22.550;2023-11-19T01:06:14;99638.44;;;4.01;73.49
72855;BME280;60991;51.278;22.550;2023-11-19T01:07:45;99634.00;;;4.02;73.04
72855;BME280;60991;51.278;22.550;2023-11-19T01:09:15;99629.13;;;3.99;73.46
72855;BME280;60991;51.278;22.550;2023-11-19T01:10:45;99629.31;;;3.97;73.52
72855;BME280;60991;51.278;22.550;2023-11-19T01:12:15;99634.13;;;3.94;73.17
72855;BME280;60991;51.278;22.550;2023-11-19T01:13:45;99637.94;;;3.91;73.86
72855;BME280;60991;51.278;22.550;2023-11-19T01:15:16;99635.88;;;3.87;73.61
72855;BME280;60991;51.278;22.550;2023-11-19T01:16:46;99634.81;;;3.81;74.03
72855;BME280;60991;51.278;22.550;2023-11-19T01:18:16;99625.50;;;3.78;73.83
72855;BME280;60991;51.278;22.550;2023-11-19T01:19:47;99621.59;;;3.74;74.38
72855;BME280;60991;51.278;22.550;2023-11-19T01:21:17;99619.75;;;3.68;73.98
72855;BME280;60991;51.278;22.550;2023-11-19T01:22:47;99620.31;;;3.64;74.61
72855;BME280;60991;51.278;22.550;2023-11-19T01:24:17;99617.22;;;3.60;74.60
72855;BME280;60991;51.278;22.550;2023-11-19T01:25:47;99615.97;;;3.56;74.95
72855;BME280;60991;51.278;22.550;2023-11-19T01:27:18;99612.72;;;3.54;74.93
72855;BME280;60991;51.278;22.550;2023-11-19T01:28:48;99620.78;;;3.53;74.48
72855;BME280;60991;51.278;22.550;2023-11-19T01:30:18;99613.94;;;3.52;74.80
72855;BME280;60991;51.278;22.550;2023-11-19T01:31:48;99617.16;;;3.54;74.81
72855;BME280;60991;51.278;22.550;2023-11-19T01:33:19;99618.16;;;3.53;75.13
72855;BME280;60991;51.278;22.550;2023-11-19T01:34:49;99614.78;;;3.37;74.90
72855;BME280;60991;51.278;22.550;2023-11-19T01:36:19;99615.59;;;3.38;75.42
72855;BME280;60991;51.278;22.550;2023-11-19T01:37:49;99616.84;;;3.42;75.15
72855;BME280;60991;51.278;22.550;2023-11-19T01:39:20;99610.41;;;3.44;74.99
72855;BME280;60991;51.278;22.550;2023-11-19T01:40:50;99615.72;;;3.30;75.64
72855;BME280;60991;51.278;22.550;2023-11-19T01:42:20;99617.16;;;3.32;75.43
72855;BME280;60991;51.278;22.550;2023-11-19T01:43:50;99615.53;;;3.31;75.26
72855;BME280;60991;51.278;22.550;2023-11-19T01:45:30;99612.31;;;3.36;74.71
72855;BME280;60991;51.278;22.550;2023-11-19T01:47:02;99603.53;;;3.43;74.55
72855;BME280;60991;51.278;22.550;2023-11-19T01:48:33;99610.41;;;3.44;75.17
72855;BME280;60991;51.278;22.550;2023-11-19T01:50:06;99608.69;;;3.37;75.50
72855;BME280;60991;51.278;22.550;2023-11-19T01:51:36;99609.69;;;3.36;74.76
72855;BME280;60991;51.278;22.550;2023-11-19T01:53:07;99595.22;;;3.40;75.35
72855;BME280;60991;51.278;22.550;2023-11-19T01:54:37;99592.34;;;3.35;75.28
72855;BME280;60991;51.278;22.550;2023-11-19T01:56:09;99584.03;;;3.31;75.55
72855;BME280;60991;51.278;22.550;2023-11-19T01:57:39;99582.78;;;3.27;75.22
72855;BME280;60991;51.278;22.550;2023-11-19T01:59:11;99588.94;;;3.20;75.27
72855;BME280;60991;51.278;22.550;2023-11-19T02:00:42;99584.69;;;3.19;76.19
72855;BME280;60991;51.278;22.550;2023-11-19T02:02:14;99579.13;;;3.07;76.43
72855;BME280;60991;51.278;22.550;2023-11-19T02:03:44;99577.59;;;3.12;76.26
72855;BME280;60991;51.278;22.550;2023-11-19T02:05:14;99580.03;;;3.14;75.68
72855;BME280;60991;51.278;22.550;2023-11-19T02:06:46;99571.63;;;3.04;75.94
72855;BME280;60991;51.278;22.550;2023-11-19T02:08:18;99568.09;;;3.11;76.34
72855;BME280;60991;51.278;22.550;2023-11-19T02:09:49;99571.34;;;3.13;76.40
72855;BME280;60991;51.278;22.550;2023-11-19T02:11:19;99562.47;;;3.15;75.96
72855;BME280;60991;51.278;22.550;2023-11-19T02:12:49;99574.84;;;3.21;76.20
72855;BME280;60991;51.278;22.550;2023-11-19T02:14:24;99572.84;;;3.23;76.24
72855;BME280;60991;51.278;22.550;2023-11-19T02:15:55;99571.09;;;3.30;75.68
72855;BME280;60991;51.278;22.550;2023-11-19T02:17:29;99573.16;;;3.34;75.93
72855;BME280;60991;51.278;22.550;2023-11-19T02:19:00;99576.41;;;3.36;75.25
72855;BME280;60991;51.278;22.550;2023-11-19T02:20:30;99572.78;;;3.37;75.09
72855;BME280;60991;51.278;22.550;2023-11-19T02:22:00;99573.16;;;3.34;75.42
72855;BME280;60991;51.278;22.550;2023-11-19T02:23:31;99556.41;;;3.35;75.56
72855;BME280;60991;51.278;22.550;2023-11-19T02:25:06;99557.41;;;3.34;75.51
72855;BME280;60991;51.278;22.550;2023-11-19T02:28:15;99541.56;;;3.42;75.45
72855;BME280;60991;51.278;22.550;2023-11-19T02:29:46;99540.13;;;3.40;75.70
72855;BME280;60991;51.278;22.550;2023-11-19T02:31:16;99541.13;;;3.39;75.56
72855;BME280;60991;51.278;22.550;2023-11-19T02:32:46;99540.06;;;3.33;75.67
72855;BME280;60991;51.278;22.550;2023-11-19T02:34:17;99539.63;;;3.30;75.29
72855;BME280;60991;51.278;22.550;2023-11-19T02:35:47;99541.53;;;3.21;75.71
72855;BME280;60991;51.278;22.550;2023-11-19T02:37:17;99532.41;;;3.17;76.16
72855;BME280;60991;51.278;22.550;2023-11-19T02:38:47;99532.41;;;3.17;76.02
72855;BME280;60991;51.278;22.550;2023-11-19T02:40:17;99530.56;;;3.11;76.46
72855;BME280;60991;51.278;22.550;2023-11-19T02:41:48;99525.94;;;3.13;75.75
72855;BME280;60991;51.278;22.550;2023-11-19T02:43:18;99529.38;;;3.13;76.33
72855;BME280;60991;51.278;22.550;2023-11-19T02:44:48;99527.47;;;3.07;76.16
72855;BME280;60991;51.278;22.550;2023-11-19T02:46:18;99527.16;;;2.96;76.69
72855;BME280;60991;51.278;22.550;2023-11-19T02:47:49;99519.66;;;2.93;76.28
72855;BME280;60991;51.278;22.550;2023-11-19T02:49:19;99523.34;;;2.98;77.11
72855;BME280;60991;51.278;22.550;2023-11-19T02:50:50;99517.22;;;2.91;76.49
72855;BME280;60991;51.278;22.550;2023-11-19T02:52:20;99516.22;;;2.92;76.83
72855;BME280;60991;51.278;22.550;2023-11-19T02:53:50;99516.69;;;2.96;76.79
72855;BME280;60991;51.278;22.550;2023-11-19T02:55:20;99512.28;;;3.03;77.13
72855;BME280;60991;51.278;22.550;2023-11-19T02:56:51;99514.06;;;2.96;76.84
72855;BME280;60991;51.278;22.550;2023-11-19T02:58:21;99506.66;;;2.85;77.42
72855;BME280;60991;51.278;22.550;2023-11-19T02:59:51;99495.31;;;2.77;77.05
72855;BME280;60991;51.278;22.550;2023-11-19T03:01:23;99500.72;;;2.76;77.83
72855;BME280;60991;51.278;22.550;2023-11-19T03:02:53;99504.78;;;2.64;77.94
72855;BME280;60991;51.278;22.550;2023-11-19T03:04:23;99508.78;;;2.60;77.76
72855;BME280;60991;51.278;22.550;2023-11-19T03:05:54;99505.81;;;2.48;78.49
72855;BME280;60991;51.278;22.550;2023-11-19T03:07:24;99504.13;;;2.40;79.19
72855;BME280;60991;51.278;22.550;2023-11-19T03:08:55;99503.81;;;2.50;78.55
72855;BME280;60991;51.278;22.550;2023-11-19T03:10:25;99514.81;;;2.60;78.84
72855;BME280;60991;51.278;22.550;2023-11-19T03:11:56;99512.56;;;2.72;78.43
72855;BME280;60991;51.278;22.550;2023-11-19T03:13:26;99512.94;;;2.69;78.27
72855;BME280;60991;51.278;22.550;2023-11-19T03:14:56;99505.78;;;2.77;77.92
72855;BME280;60991;51.278;22.550;2023-11-19T03:16:27;99517.59;;;2.88;77.22
72855;BME280;60991;51.278;22.550;2023-11-19T03:17:57;99508.91;;;2.88;77.97
72855;BME280;60991;51.278;22.550;2023-11-19T03:19:27;99506.66;;;2.85;77.82
72855;BME280;60991;51.278;22.550;2023-11-19T03:20:57;99505.78;;;2.77;78.20
72855;BME280;60991;51.278;22.550;2023-11-19T03:22:27;99507.38;;;2.78;77.51
72855;BME280;60991;51.278;22.550;2023-11-19T03:23:58;99505.78;;;2.77;77.72
72855;BME280;60991;51.278;22.550;2023-11-19T03:25:28;99502.63;;;2.67;78.45
72855;BME280;60991;51.278;22.550;2023-11-19T03:26:58;99511.75;;;2.71;77.95
72855;BME280;60991;51.278;22.550;2023-11-19T03:28:29;99499.91;;;2.75;78.10
72855;BME280;60991;51.278;22.550;2023-11-19T03:29:59;99505.84;;;2.84;77.84
72855;BME280;60991;51.278;22.550;2023-11-19T03:31:29;99494.25;;;2.93;77.07
72855;BME280;60991;51.278;22.550;2023-11-19T03:33:00;99489.31;;;3.05;77.61
72855;BME280;60991;51.278;22.550;2023-11-19T03:34:30;99483.31;;;2.90;78.00
72855;BME280;60991;51.278;22.550;2023-11-19T03:36:00;99490.00;;;2.92;77.17
72855;BME280;60991;51.278;22.550;2023-11-19T03:37:30;99478.75;;;2.98;77.15
72855;BME280;60991;51.278;22.550;2023-11-19T03:39:01;99475.22;;;3.06;77.18
72855;BME280;60991;51.278;22.550;2023-11-19T03:40:31;99473.78;;;3.03;77.49
72855;BME280;60991;51.278;22.550;2023-11-19T03:42:01;99467.28;;;2.99;77.11
72855;BME280;60991;51.278;22.550;2023-11-19T03:43:31;99461.09;;;2.86;77.53
72855;BME280;60991;51.278;22.550;2023-11-19T03:45:02;99466.41;;;2.92;77.02
72855;BME280;60991;51.278;22.550;2023-11-19T03:46:32;99457.38;;;2.95;77.14
72855;BME280;60991;51.278;22.550;2023-11-19T03:48:02;99456.38;;;2.96;77.06
72855;BME280;60991;51.278;22.550;2023-11-19T03:49:33;99456.28;;;2.89;77.80
72855;BME280;60991;51.278;22.550;2023-11-19T03:51:03;99448.88;;;2.93;77.66
72855;BME280;60991;51.278;22.550;2023-11-19T03:52:33;99446.25;;;2.93;77.90
72855;BME280;60991;51.278;22.550;2023-11-19T03:54:03;99442.75;;;2.86;78.14
72855;BME280;60991;51.278;22.550;2023-11-19T03:55:34;99447.25;;;2.92;77.18
72855;BME280;60991;51.278;22.550;2023-11-19T03:57:04;99438.88;;;2.82;77.81
72855;BME280;60991;51.278;22.550;2023-11-19T03:58:34;99450.38;;;2.66;78.16
72855;BME280;60991;51.278;22.550;2023-11-19T04:00:05;99439.94;;;2.51;78.43
72855;BME280;60991;51.278;22.550;2023-11-19T04:01:35;99438.50;;;2.49;78.31
72855;BME280;60991;51.278;22.550;2023-11-19T04:03:06;99438.50;;;2.49;78.93
72855;BME280;60991;51.278;22.550;2023-11-19T04:04:36;99443.38;;;2.52;78.46
72855;BME280;60991;51.278;22.550;2023-11-19T04:06:06;99436.03;;;2.62;78.80
72855;BME280;60991;51.278;22.550;2023-11-19T04:07:37;99435.66;;;2.65;78.42
72855;BME280;60991;51.278;22.550;2023-11-19T04:09:07;99435.53;;;2.52;78.31
72855;BME280;60991;51.278;22.550;2023-11-19T04:10:37;99432.09;;;2.51;79.03
72855;BME280;60991;51.278;22.550;2023-11-19T04:12:08;99427.44;;;2.32;78.99
72855;BME280;60991;51.278;22.550;2023-11-19T04:13:38;99438.63;;;2.26;79.85
72855;BME280;60991;51.278;22.550;2023-11-19T04:15:08;99428.97;;;2.41;79.99
72855;BME280;60991;51.278;22.550;2023-11-19T04:16:39;99435.78;;;2.57;78.60
72855;BME280;60991;51.278;22.550;2023-11-19T04:18:09;99431.41;;;2.64;78.78
72855;BME280;60991;51.278;22.550;2023-11-19T04:19:39;99434.13;;;2.70;78.83
72855;BME280;60991;51.278;22.550;2023-11-19T04:21:09;99435.94;;;2.70;78.65
72855;BME280;60991;51.278;22.550;2023-11-19T04:22:40;99425.94;;;2.59;79.23
72855;BME280;60991;51.278;22.550;2023-11-19T04:24:10;99428.16;;;2.62;79.31
72855;BME280;60991;51.278;22.550;2023-11-19T04:25:41;99420.66;;;2.73;78.40
72855;BME280;60991;51.278;22.550;2023-11-19T04:27:11;99420.31;;;2.83;77.82
72855;BME280;60991;51.278;22.550;2023-11-19T04:28:41;99427.16;;;2.77;78.73
72855;BME280;60991;51.278;22.550;2023-11-19T04:30:11;99426.94;;;2.58;78.61
72855;BME280;60991;51.278;22.550;2023-11-19T04:31:42;99425.81;;;2.67;78.72
72855;BME280;60991;51.278;22.550;2023-11-19T04:33:13;99429.50;;;2.72;78.68
72855;BME280;60991;51.278;22.550;2023-11-19T04:34:43;99436.19;;;2.75;78.82
72855;BME280;60991;51.278;22.550;2023-11-19T04:36:18;99429.50;;;2.72;78.49
72855;BME280;60991;51.278;22.550;2023-11-19T04:37:49;99428.75;;;2.57;78.74
72855;BME280;60991;51.278;22.550;2023-11-19T04:39:19;99437.38;;;2.72;79.15
72855;BME280;60991;51.278;22.550;2023-11-19T04:40:49;99430.75;;;2.76;78.03
72855;BME280;60991;51.278;22.550;2023-11-19T04:42:22;99433.06;;;2.86;78.56
72855;BME280;60991;51.278;22.550;2023-11-19T04:43:52;99438.50;;;2.85;78.28
72855;BME280;60991;51.278;22.550;2023-11-19T04:45:22;99436.50;;;2.87;78.16
72855;BME280;60991;51.278;22.550;2023-11-19T04:46:53;99440.97;;;2.71;78.00
72855;BME280;60991;51.278;22.550;2023-11-19T04:48:23;99439.63;;;2.61;79.27
72855;BME280;60991;51.278;22.550;2023-11-19T04:49:54;99436.84;;;2.62;79.14
72855;BME280;60991;51.278;22.550;2023-11-19T04:51:24;99442.66;;;2.58;78.64
72855;BME280;60991;51.278;22.550;2023-11-19T04:52:54;99437.31;;;2.51;78.85
72855;BME280;60991;51.278;22.550;2023-11-19T04:54:24;99437.38;;;2.36;79.48
72855;BME280;60991;51.278;22.550;2023-11-19T04:55:54;99431.38;;;2.42;79.26
72855;BME280;60991;51.278;22.550;2023-11-19T04:57:25;99426.13;;;2.42;78.91
72855;BME280;60991;51.278;22.550;2023-11-19T04:58:55;99428.31;;;2.39;79.85
72855;BME280;60991;51.278;22.550;2023-11-19T05:00:25;99424.09;;;2.38;79.08
72855;BME280;60991;51.278;22.550;2023-11-19T05:01:55;99422.63;;;2.35;79.48
72855;BME280;60991;51.278;22.550;2023-11-19T05:03:25;99415.47;;;2.44;79.88
72855;BME280;60991;51.278;22.550;2023-11-19T05:04:56;99403.75;;;2.40;78.99
72855;BME280;60991;51.278;22.550;2023-11-19T05:06:30;99398.88;;;2.37;79.09
72855;BME280;60991;51.278;22.550;2023-11-19T05:08:00;99404.13;;;2.37;79.75
72855;BME280;60991;51.278;22.550;2023-11-19T05:09:31;99400.94;;;2.41;79.38
72855;BME280;60991;51.278;22.550;2023-11-19T05:11:01;99396.78;;;2.47;78.77
72855;BME280;60991;51.278;22.550;2023-11-19T05:12:31;99398.75;;;2.45;78.94
72855;BME280;60991;51.278;22.550;2023-11-19T05:14:02;99400.31;;;2.39;79.72
72855;BME280;60991;51.278;22.550;2023-11-19T05:15:33;99392.66;;;2.38;78.94
72855;BME280;60991;51.278;22.550;2023-11-19T05:17:03;99393.16;;;2.48;79.29
72855;BME280;60991;51.278;22.550;2023-11-19T05:18:34;99387.50;;;2.30;79.52
72855;BME280;60991;51.278;22.550;2023-11-19T05:20:04;99385.63;;;2.24;79.30
72855;BME280;60991;51.278;22.550;2023-11-19T05:21:35;99383.03;;;2.09;80.30
72855;BME280;60991;51.278;22.550;2023-11-19T05:23:05;99380.25;;;1.96;80.67
72855;BME280;60991;51.278;22.550;2023-11-19T05:24:35;99376.19;;;1.93;81.33
72855;BME280;60991;51.278;22.550;2023-11-19T05:26:05;99376.53;;;1.90;81.29
72855;BME280;60991;51.278;22.550;2023-11-19T05:27:36;99379.44;;;1.95;80.87
72855;BME280;60991;51.278;22.550;2023-11-19T05:29:07;99375.81;;;2.11;81.09
72855;BME280;60991;51.278;22.550;2023-11-19T05:30:37;99366.69;;;2.22;80.24
72855;BME280;60991;51.278;22.550;2023-11-19T05:32:07;99368.22;;;2.16;81.14
72855;BME280;60991;51.278;22.550;2023-11-19T05:33:38;99364.25;;;2.05;81.30
72855;BME280;60991;51.278;22.550;2023-11-19T05:35:08;99358.09;;;2.13;80.87
72855;BME280;60991;51.278;22.550;2023-11-19T05:36:38;99361.22;;;2.02;81.56
72855;BME280;60991;51.278;22.550;2023-11-19T05:38:08;99360.94;;;1.97;81.12
72855;BME280;60991;51.278;22.550;2023-11-19T05:39:39;99363.19;;;2.00;81.83
72855;BME280;60991;51.278;22.550;2023-11-19T05:41:09;99364.72;;;1.94;81.37
72855;BME280;60991;51.278;22.550;2023-11-19T05:42:42;99354.50;;;2.14;81.54
72855;BME280;60991;51.278;22.550;2023-11-19T05:44:12;99342.75;;;2.10;81.46
72855;BME280;60991;51.278;22.550;2023-11-19T05:45:42;99351.00;;;1.92;81.20
72855;BME280;60991;51.278;22.550;2023-11-19T05:47:13;99355.16;;;2.01;81.46
72855;BME280;60991;51.278;22.550;2023-11-19T05:48:43;99342.47;;;2.20;80.85
72855;BME280;60991;51.278;22.550;2023-11-19T05:50:13;99342.09;;;2.23;81.29
72855;BME280;60991;51.278;22.550;2023-11-19T05:51:43;99339.72;;;2.28;80.60
72855;BME280;60991;51.278;22.550;2023-11-19T05:53:14;99336.56;;;2.32;80.40
72855;BME280;60991;51.278;22.550;2023-11-19T05:54:44;99332.25;;;2.25;80.56
72855;BME280;60991;51.278;22.550;2023-11-19T05:56:14;99326.78;;;2.41;80.68
72855;BME280;60991;51.278;22.550;2023-11-19T05:57:44;99330.34;;;2.55;80.21
72855;BME280;60991;51.278;22.550;2023-11-19T05:59:15;99333.28;;;2.66;79.85
72855;BME280;60991;51.278;22.550;2023-11-19T06:00:46;99328.47;;;2.49;80.01
72855;BME280;60991;51.278;22.550;2023-11-19T06:02:17;99335.84;;;2.38;80.68
72855;BME280;60991;51.278;22.550;2023-11-19T06:03:47;99331.69;;;2.29;79.89
72855;BME280;60991;51.278;22.550;2023-11-19T06:05:17;99333.06;;;2.25;80.86
72855;BME280;60991;51.278;22.550;2023-11-19T06:06:47;99336.75;;;2.31;80.42
72855;BME280;60991;51.278;22.550;2023-11-19T06:08:17;99331.16;;;2.34;80.34
72855;BME280;60991;51.278;22.550;2023-11-19T06:09:48;99323.66;;;2.31;80.97
72855;BME280;60991;51.278;22.550;2023-11-19T06:11:18;99329.06;;;2.29;80.37
72855;BME280;60991;51.278;22.550;2023-11-19T06:12:48;99331.16;;;2.34;79.69
72855;BME280;60991;51.278;22.550;2023-11-19T06:14:18;99326.84;;;2.48;79.74
72855;BME280;60991;51.278;22.550;2023-11-19T06:15:49;99328.97;;;2.59;79.47
72855;BME280;60991;51.278;22.550;2023-11-19T06:17:19;99336.41;;;2.55;79.80
72855;BME280;60991;51.278;22.550;2023-11-19T06:18:49;99332.44;;;2.44;79.74
72855;BME280;60991;51.278;22.550;2023-11-19T06:20:19;99331.97;;;2.56;78.95
72855;BME280;60991;51.278;22.550;2023-11-19T06:21:50;99330.47;;;2.68;79.31
72855;BME280;60991;51.278;22.550;2023-11-19T06:23:20;99322.50;;;2.76;78.46
72855;BME280;60991;51.278;22.550;2023-11-19T06:24:50;99331.00;;;2.85;78.17
72855;BME280;60991;51.278;22.550;2023-11-19T06:26:20;99327.72;;;2.76;79.05
72855;BME280;60991;51.278;22.550;2023-11-19T06:27:51;99324.97;;;2.84;78.52
72855;BME280;60991;51.278;22.550;2023-11-19T06:29:22;99328.28;;;2.93;77.80
72855;BME280;60991;51.278;22.550;2023-11-19T06:30:52;99326.91;;;2.97;78.09
72855;BME280;60991;51.278;22.550;2023-11-19T06:32:22;99327.94;;;3.02;78.05
72855;BME280;60991;51.278;22.550;2023-11-19T06:33:52;99333.25;;;3.09;77.80
72855;BME280;60991;51.278;22.550;2023-11-19T06:35:23;99340.84;;;3.04;77.17
72855;BME280;60991;51.278;22.550;2023-11-19T06:36:53;99337.38;;;2.97;77.79
72855;BME280;60991;51.278;22.550;2023-11-19T06:38:23;99342.84;;;3.02;77.76
72855;BME280;60991;51.278;22.550;2023-11-19T06:39:53;99337.41;;;3.03;77.13
72855;BME280;60991;51.278;22.550;2023-11-19T06:41:24;99333.00;;;3.04;76.83
72855;BME280;60991;51.278;22.550;2023-11-19T06:42:54;99329.25;;;3.13;77.38
72855;BME280;60991;51.278;22.550;2023-11-19T06:44:24;99332.28;;;3.17;77.03
72855;BME280;60991;51.278;22.550;2023-11-19T06:45:54;99326.66;;;3.20;77.07
72855;BME280;60991;51.278;22.550;2023-11-19T06:47:28;99330.50;;;3.24;76.52
72855;BME280;60991;51.278;22.550;2023-11-19T06:48:58;99338.06;;;3.33;76.40
72855;BME280;60991;51.278;22.550;2023-11-19T06:50:28;99328.22;;;3.42;76.83
72855;BME280;60991;51.278;22.550;2023-11-19T06:51:59;99329.78;;;3.36;76.54
72855;BME280;60991;51.278;22.550;2023-11-19T06:53:29;99327.13;;;3.30;76.00
72855;BME280;60991;51.278;22.550;2023-11-19T06:54:59;99331.94;;;3.26;76.19
72855;BME280;60991;51.278;22.550;2023-11-19T06:56:29;99332.19;;;3.31;76.94
72855;BME280;60991;51.278;22.550;2023-11-19T06:58:00;99330.78;;;3.35;75.72
72855;BME280;60991;51.278;22.550;2023-11-19T06:59:30;99333.44;;;3.07;76.75
72855;BME280;60991;51.278;22.550;2023-11-19T07:01:01;99340.91;;;3.10;76.53
72855;BME280;60991;51.278;22.550;2023-11-19T07:02:31;99331.63;;;3.08;76.23
72855;BME280;60991;51.278;22.550;2023-11-19T07:04:02;99332.28;;;3.17;76.28
72855;BME280;60991;51.278;22.550;2023-11-19T07:05:33;99327.63;;;3.12;75.81
72855;BME280;60991;51.278;22.550;2023-11-19T07:07:03;99320.97;;;3.16;76.03
72855;BME280;60991;51.278;22.550;2023-11-19T07:08:33;99325.66;;;3.21;76.12
72855;BME280;60991;51.278;22.550;2023-11-19T07:10:04;99319.47;;;3.28;75.46
72855;BME280;60991;51.278;22.550;2023-11-19T07:11:39;99319.25;;;3.30;75.87
72855;BME280;60991;51.278;22.550;2023-11-19T07:13:09;99322.91;;;3.35;76.14
72855;BME280;60991;51.278;22.550;2023-11-19T07:14:40;99322.34;;;3.40;75.65
72855;BME280;60991;51.278;22.550;2023-11-19T07:16:10;99324.16;;;3.39;75.45
72855;BME280;60991;51.278;22.550;2023-11-19T07:17:40;99318.16;;;3.45;75.63
72855;BME280;60991;51.278;22.550;2023-11-19T07:19:10;99324.41;;;3.44;75.78
72855;BME280;60991;51.278;22.550;2023-11-19T07:20:41;99328.06;;;3.50;75.73
72855;BME280;60991;51.278;22.550;2023-11-19T07:22:11;99323.78;;;3.42;75.86
72855;BME280;60991;51.278;22.550;2023-11-19T07:23:41;99321.84;;;3.23;75.74
72855;BME280;60991;51.278;22.550;2023-11-19T07:25:14;99322.31;;;3.33;75.58
72855;BME280;60991;51.278;22.550;2023-11-19T07:26:46;99323.34;;;3.39;75.28
72855;BME280;60991;51.278;22.550;2023-11-19T07:28:16;99318.72;;;3.41;74.61
72855;BME280;60991;51.278;22.550;2023-11-19T07:29:46;99307.28;;;3.21;75.05
72855;BME280;60991;51.278;22.550;2023-11-19T07:31:17;99305.38;;;3.08;75.88
72855;BME280;60991;51.278;22.550;2023-11-19T07:32:47;99294.16;;;3.14;75.82
72855;BME280;60991;51.278;22.550;2023-11-19T07:34:18;99298.38;;;3.15;75.28
72855;BME280;60991;51.278;22.550;2023-11-19T07:35:48;99301.22;;;3.20;75.70
72855;BME280;60991;51.278;22.550;2023-11-19T07:37:18;99291.22;;;3.30;74.93
72855;BME280;60991;51.278;22.550;2023-11-19T07:38:48;99292.22;;;3.29;75.14
72855;BME280;60991;51.278;22.550;2023-11-19T07:40:18;99296.59;;;3.22;75.53
72855;BME280;60991;51.278;22.550;2023-11-19T07:41:49;99302.09;;;2.99;75.81
72855;BME280;60991;51.278;22.550;2023-11-19T07:43:19;99301.38;;;3.12;76.08
72855;BME280;60991;51.278;22.550;2023-11-19T07:44:49;99298.72;;;3.05;75.80
72855;BME280;60991;51.278;22.550;2023-11-19T07:46:19;99305.19;;;2.82;76.40
72855;BME280;60991;51.278;22.550;2023-11-19T07:47:50;99307.16;;;2.79;76.47
72855;BME280;60991;51.278;22.550;2023-11-19T07:49:20;99306.31;;;2.72;76.30
72855;BME280;60991;51.278;22.550;2023-11-19T07:50:50;99306.97;;;2.81;76.73
72855;BME280;60991;51.278;22.550;2023-11-19T07:52:20;99298.25;;;2.95;76.86
72855;BME280;60991;51.278;22.550;2023-11-19T07:53:51;99300.16;;;3.08;76.12
72855;BME280;60991;51.278;22.550;2023-11-19T07:55:21;99297.53;;;3.08;76.54
72855;BME280;60991;51.278;22.550;2023-11-19T07:56:51;99299.56;;;3.12;76.16
72855;BME280;60991;51.278;22.550;2023-11-19T07:58:21;99286.13;;;2.94;76.58
72855;BME280;60991;51.278;22.550;2023-11-19T07:59:52;99289.50;;;2.88;76.76